Time;durP1;ratioP1;P1;durP2;ratioP2;P2;SDS_P1;SDS_P2;PMS_P1;PMS_P2;Temp;Humidity;BMP_temperature;BMP_pressure;BME280_temperature;BME280_humidity;BME280_pressure;Samples;Min_cycle;Max_cycle;Signal;HPM_P1;HPM_P2
2021/05/23 00:00:25;;;;;;;9.77;2.50;;;;;;;;;;5060662;28;20165;-67
2021/05/23 00:02:54;;;;;;;6.20;2.20;;;;;;;;;;5054641;28;20078;-67
2021/05/23 00:05:20;;;;;;;8.70;2.83;;;;;;;;;;5063823;28;20079;-67
2021/05/23 00:07:50;;;;;;;8.97;2.30;;;;;;;;;;5068038;28;20028;-67
2021/05/23 00:10:16;;;;;;;7.23;2.37;;;;;;;;;;5058523;28;20074;-67
2021/05/23 00:12:42;;;;;;;6.63;2.60;;;;;;;;;;5063495;28;20039;-67
2021/05/23 00:15:08;;;;;;;10.67;2.50;;;;;;;;;;5067622;28;20028;-67
2021/05/23 00:17:33;;;;;;;7.63;2.73;;;;;;;;;;5058550;28;20032;-67
2021/05/23 00:19:58;;;;;;;6.23;2.80;;;;;;;;;;5068166;28;20028;-67
2021/05/23 00:22:24;;;;;;;9.87;2.50;;;;;;;;;;5058841;28;20119;-67
2021/05/23 00:24:49;;;;;;;9.70;2.70;;;;;;;;;;5058501;28;20114;-67
2021/05/23 00:27:14;;;;;;;6.93;2.90;;;;;;;;;;5063380;28;20480;-67
2021/05/23 00:29:39;;;;;;;7.47;2.27;;;;;;;;;;5067821;28;20124;-67
2021/05/23 00:32:06;;;;;;;9.97;3.13;;;;;;;;;;5061138;28;20040;-67
2021/05/23 00:34:31;;;;;;;6.80;2.40;;;;;;;;;;5071905;28;20399;-67
2021/05/23 00:36:56;;;;;;;7.43;2.77;;;;;;;;;;5065366;28;20033;-67
2021/05/23 00:39:21;;;;;;;7.80;2.40;;;;;;;;;;5069080;28;20524;-67
2021/05/23 00:41:47;;;;;;;8.93;2.50;;;;;;;;;;5066922;28;20457;-67
2021/05/23 00:44:12;;;;;;;8.17;2.60;;;;;;;;;;5072146;28;20150;-67
2021/05/23 00:46:37;;;;;;;9.53;2.97;;;;;;;;;;5057138;28;20017;-67
2021/05/23 00:49:03;;;;;;;8.57;2.60;;;;;;;;;;5068796;28;20021;-67
2021/05/23 00:51:28;;;;;;;6.80;2.50;;;;;;;;;;5055084;28;20366;-67
2021/05/23 00:53:53;;;;;;;7.97;2.40;;;;;;;;;;5061298;28;20029;-67
2021/05/23 00:56:19;;;;;;;7.70;2.77;;;;;;;;;;5067395;28;20078;-67
2021/05/23 00:58:45;;;;;;;7.57;2.40;;;;;;;;;;5066409;28;20369;-67
2021/05/23 01:01:33;;;;;;;9.87;2.87;;;;;;;;;;5054497;28;20025;-67
2021/05/23 01:03:59;;;;;;;8.10;2.37;;;;;;;;;;5024077;28;20049;-68
2021/05/23 01:06:24;;;;;;;8.17;2.20;;;;;;;;;;5065435;28;20495;-67
2021/05/23 01:08:49;;;;;;;10.93;2.10;;;;;;;;;;5054028;28;20485;-67
2021/05/23 01:11:15;;;;;;;9.07;3.17;;;;;;;;;;5063252;28;20539;-67
2021/05/23 01:13:58;;;;;;;6.10;2.60;;;;;;;;;;5065366;28;20544;-67
2021/05/23 01:16:38;;;;;;;8.17;2.13;;;;;;;;;;5060565;28;20035;-67
2021/05/23 01:19:12;;;;;;;10.67;2.43;;;;;;;;;;5065420;28;20531;-67
2021/05/23 01:21:39;;;;;;;8.93;2.43;;;;;;;;;;5060647;28;20067;-67
2021/05/23 01:24:08;;;;;;;8.73;2.30;;;;;;;;;;5053827;28;20063;-67
2021/05/23 01:26:35;;;;;;;6.93;2.43;;;;;;;;;;5055934;28;20380;-67
2021/05/23 01:29:03;;;;;;;5.73;2.67;;;;;;;;;;5067414;28;20023;-67
2021/05/23 01:31:29;;;;;;;10.17;2.43;;;;;;;;;;5056924;28;20070;-67
2021/05/23 01:33:55;;;;;;;9.23;2.63;;;;;;;;;;5065032;28;20035;-67
2021/05/23 01:36:22;;;;;;;6.07;2.43;;;;;;;;;;5060124;28;20033;-67
2021/05/23 01:38:47;;;;;;;12.73;2.53;;;;;;;;;;5055175;28;20087;-67
2021/05/23 01:41:12;;;;;;;11.00;2.70;;;;;;;;;;5056012;28;20013;-67
2021/05/23 01:43:38;;;;;;;11.00;2.70;;;;;;;;;;5059672;28;20040;-67
2021/05/23 01:46:04;;;;;;;9.80;3.33;;;;;;;;;;5055711;28;20463;-67
2021/05/23 01:48:30;;;;;;;11.40;2.63;;;;;;;;;;5055484;28;20025;-67
2021/05/23 01:50:56;;;;;;;10.17;2.60;;;;;;;;;;5055592;28;20104;-67
2021/05/23 01:53:21;;;;;;;11.10;2.90;;;;;;;;;;5059666;28;20123;-67
2021/05/23 01:55:46;;;;;;;8.57;2.80;;;;;;;;;;5063931;28;20025;-67
2021/05/23 01:58:12;;;;;;;7.70;2.70;;;;;;;;;;5061234;28;20109;-67
2021/05/23 02:00:39;;;;;;;14.17;2.97;;;;;;;;;;5055140;28;20029;-67
2021/05/23 02:03:06;;;;;;;10.27;2.67;;;;;;;;;;5057246;28;20066;-67
2021/05/23 02:05:32;;;;;;;10.10;2.80;;;;;;;;;;5055112;28;20520;-67
2021/05/23 02:07:57;;;;;;;8.20;2.70;;;;;;;;;;5058610;28;20016;-67
2021/05/23 02:10:23;;;;;;;13.23;3.23;;;;;;;;;;5061356;28;20024;-67
2021/05/23 02:12:48;;;;;;;11.57;2.90;;;;;;;;;;5066993;28;20024;-67
2021/05/23 02:15:15;;;;;;;12.60;2.60;;;;;;;;;;5065032;28;20039;-67
2021/05/23 02:17:41;;;;;;;10.30;3.47;;;;;;;;;;5064702;28;20090;-67
2021/05/23 02:20:09;;;;;;;12.60;3.00;;;;;;;;;;5064232;28;20483;-67
2021/05/23 02:22:39;;;;;;;24.83;3.70;;;;;;;;;;5062695;28;20551;-67
2021/05/23 02:25:05;;;;;;;8.93;2.77;;;;;;;;;;5065409;28;20059;-67
2021/05/23 02:27:34;;;;;;;12.23;2.90;;;;;;;;;;5063838;28;20032;-67
2021/05/23 02:30:00;;;;;;;8.97;3.10;;;;;;;;;;5061202;28;20142;-67
2021/05/23 02:32:25;;;;;;;10.40;3.00;;;;;;;;;;5064292;28;20119;-67
2021/05/23 02:34:50;;;;;;;18.97;4.50;;;;;;;;;;5066894;28;20032;-67
2021/05/23 02:37:15;;;;;;;10.37;3.93;;;;;;;;;;5062522;28;20074;-67
2021/05/23 02:39:41;;;;;;;11.43;3.40;;;;;;;;;;5062248;28;20036;-67
2021/05/23 02:42:06;;;;;;;11.70;3.23;;;;;;;;;;5053799;28;20064;-67
2021/05/23 02:44:31;;;;;;;22.50;3.70;;;;;;;;;;5052164;28;20040;-67
2021/05/23 02:46:57;;;;;;;10.90;3.23;;;;;;;;;;5062258;28;20032;-67
2021/05/23 02:49:22;;;;;;;11.53;2.97;;;;;;;;;;5060643;28;20041;-67
2021/05/23 02:51:47;;;;;;;10.93;3.10;;;;;;;;;;5060287;28;20081;-67
2021/05/23 02:54:12;;;;;;;9.00;3.13;;;;;;;;;;5053465;28;20020;-68
2021/05/23 02:56:37;;;;;;;13.90;3.17;;;;;;;;;;5065767;28;20642;-67
2021/05/23 02:59:03;;;;;;;10.73;3.23;;;;;;;;;;5053638;28;20488;-67
2021/05/23 03:01:28;;;;;;;10.57;3.13;;;;;;;;;;5060080;28;20028;-67
2021/05/23 03:03:53;;;;;;;10.40;2.80;;;;;;;;;;5057317;28;20027;-67
2021/05/23 03:06:19;;;;;;;11.57;3.17;;;;;;;;;;5054791;28;20368;-67
2021/05/23 03:08:44;;;;;;;10.07;2.70;;;;;;;;;;5061683;28;20020;-67
2021/05/23 03:11:09;;;;;;;16.03;3.20;;;;;;;;;;5061053;28;20029;-67
2021/05/23 03:13:34;;;;;;;11.90;3.10;;;;;;;;;;5063159;28;20028;-67
2021/05/23 03:16:00;;;;;;;11.23;3.07;;;;;;;;;;5061048;28;20028;-67
2021/05/23 03:18:25;;;;;;;14.57;2.77;;;;;;;;;;5064760;28;20032;-67
2021/05/23 03:20:51;;;;;;;11.07;2.53;;;;;;;;;;5055047;28;20154;-67
2021/05/23 03:23:16;;;;;;;17.40;4.00;;;;;;;;;;5061910;28;20369;-67
2021/05/23 03:25:42;;;;;;;9.43;3.13;;;;;;;;;;5055658;28;20037;-67
2021/05/23 03:28:07;;;;;;;10.90;2.90;;;;;;;;;;5055154;28;20036;-67
2021/05/23 03:30:35;;;;;;;8.43;3.13;;;;;;;;;;5061511;28;20409;-67
2021/05/23 03:33:01;;;;;;;10.03;3.80;;;;;;;;;;5063171;28;20029;-67
2021/05/23 03:35:26;;;;;;;10.53;3.13;;;;;;;;;;5063146;28;20032;-67
2021/05/23 03:37:52;;;;;;;11.43;3.70;;;;;;;;;;5059320;28;20041;-67
2021/05/23 03:40:18;;;;;;;15.63;3.57;;;;;;;;;;5050785;28;20029;-67
2021/05/23 03:42:45;;;;;;;15.03;3.70;;;;;;;;;;5062822;28;20135;-67
2021/05/23 03:45:11;;;;;;;9.87;3.70;;;;;;;;;;5053753;28;20032;-67
2021/05/23 03:47:36;;;;;;;9.23;3.20;;;;;;;;;;5061538;28;20025;-67
2021/05/23 03:50:02;;;;;;;11.73;3.13;;;;;;;;;;5060395;28;20031;-67
2021/05/23 03:52:28;;;;;;;9.97;2.90;;;;;;;;;;5057976;28;20370;-68
2021/05/23 03:54:53;;;;;;;9.63;3.60;;;;;;;;;;5049504;28;20043;-67
2021/05/23 03:57:19;;;;;;;8.47;3.00;;;;;;;;;;5059556;28;20103;-67
2021/05/23 03:59:44;;;;;;;10.83;2.90;;;;;;;;;;5055313;28;20150;-68
2021/05/23 04:02:10;;;;;;;9.13;2.80;;;;;;;;;;5059162;28;20155;-67
2021/05/23 04:04:49;;;;;;;11.17;2.40;;;;;;;;;;5054311;28;20098;-68
2021/05/23 04:07:15;;;;;;;6.13;2.73;;;;;;;;;;5060847;28;20020;-68
2021/05/23 04:09:41;;;;;;;6.03;2.40;;;;;;;;;;5064100;28;20529;-68
2021/05/23 04:12:07;;;;;;;10.90;2.80;;;;;;;;;;5058982;28;20044;-68
2021/05/23 04:14:32;;;;;;;12.03;2.63;;;;;;;;;;5061020;28;20036;-68
2021/05/23 04:16:57;;;;;;;6.67;2.03;;;;;;;;;;5065784;28;20036;-68
2021/05/23 04:19:23;;;;;;;7.40;2.70;;;;;;;;;;5060452;28;20068;-68
2021/05/23 04:21:48;;;;;;;7.33;2.70;;;;;;;;;;5064108;28;20041;-68
2021/05/23 04:24:13;;;;;;;7.30;2.33;;;;;;;;;;5054924;28;20421;-68
2021/05/23 04:26:38;;;;;;;5.70;2.10;;;;;;;;;;5053293;28;20098;-69
2021/05/23 04:29:04;;;;;;;5.20;2.20;;;;;;;;;;5062745;28;20028;-69
2021/05/23 04:31:29;;;;;;;9.80;2.67;;;;;;;;;;5067130;28;20477;-69
2021/05/23 04:33:54;;;;;;;5.37;2.07;;;;;;;;;;5056911;28;20107;-69
2021/05/23 04:36:19;;;;;;;6.03;2.33;;;;;;;;;;5061538;28;20047;-69
2021/05/23 04:38:45;;;;;;;7.43;1.93;;;;;;;;;;5060776;28;20052;-69
2021/05/23 04:41:13;;;;;;;6.87;2.10;;;;;;;;;;5064749;28;20404;-69
2021/05/23 04:43:39;;;;;;;7.40;2.80;;;;;;;;;;5055048;28;20020;-69
2021/05/23 04:46:04;;;;;;;10.07;2.37;;;;;;;;;;5062782;28;20099;-69
2021/05/23 04:48:30;;;;;;;7.07;1.90;;;;;;;;;;5059414;28;20029;-69
2021/05/23 04:50:55;;;;;;;5.37;2.17;;;;;;;;;;5061248;28;20029;-69
2021/05/23 04:53:20;;;;;;;4.50;1.87;;;;;;;;;;5059564;28;20039;-69
2021/05/23 04:55:45;;;;;;;7.23;2.10;;;;;;;;;;5058981;28;20032;-69
2021/05/23 04:58:10;;;;;;;5.97;1.73;;;;;;;;;;5062516;28;20066;-69
2021/05/23 05:00:36;;;;;;;12.83;1.80;;;;;;;;;;5062272;28;20072;-70
2021/05/23 05:03:01;;;;;;;7.93;2.13;;;;;;;;;;5061377;28;20033;-69
2021/05/23 05:05:27;;;;;;;8.33;1.80;;;;;;;;;;5058651;28;20049;-69
2021/05/23 05:07:52;;;;;;;6.27;1.67;;;;;;;;;;5054287;28;20090;-70
2021/05/23 05:10:17;;;;;;;7.83;2.50;;;;;;;;;;5056744;28;20369;-70
2021/05/23 05:12:42;;;;;;;5.17;2.00;;;;;;;;;;5061403;28;20068;-70
2021/05/23 05:15:08;;;;;;;4.63;1.90;;;;;;;;;;5056355;28;20392;-70
2021/05/23 05:17:34;;;;;;;6.80;2.20;;;;;;;;;;5055453;28;20092;-70
2021/05/23 05:19:59;;;;;;;10.57;2.10;;;;;;;;;;5061598;28;20495;-70
2021/05/23 05:22:24;;;;;;;6.87;2.00;;;;;;;;;;5065081;28;20032;-70
2021/05/23 05:24:49;;;;;;;6.03;1.60;;;;;;;;;;5059716;28;20115;-70
2021/05/23 05:27:15;;;;;;;5.60;1.60;;;;;;;;;;5055544;28;20025;-70
2021/05/23 05:29:40;;;;;;;12.20;2.00;;;;;;;;;;5066552;28;20119;-70
2021/05/23 05:32:05;;;;;;;7.20;1.67;;;;;;;;;;5043305;28;20453;-70
2021/05/23 05:34:31;;;;;;;8.13;2.30;;;;;;;;;;5056623;28;20032;-70
2021/05/23 05:36:56;;;;;;;6.50;1.60;;;;;;;;;;5063265;28;20039;-70
2021/05/23 05:39:21;;;;;;;12.60;2.00;;;;;;;;;;5054861;28;20034;-70
2021/05/23 05:41:47;;;;;;;9.80;2.10;;;;;;;;;;5064961;28;20032;-70
2021/05/23 05:44:12;;;;;;;6.50;1.53;;;;;;;;;;5058818;28;20032;-70
2021/05/23 05:46:37;;;;;;;5.60;1.90;;;;;;;;;;5057017;28;20029;-70
2021/05/23 05:49:02;;;;;;;10.43;2.10;;;;;;;;;;5053328;28;20036;-70
2021/05/23 05:51:28;;;;;;;6.00;2.10;;;;;;;;;;5061086;28;20056;-70
2021/05/23 05:53:53;;;;;;;8.33;2.00;;;;;;;;;;5056548;28;20039;-70
2021/05/23 05:56:19;;;;;;;7.20;1.80;;;;;;;;;;5059302;28;20036;-70
2021/05/23 05:58:44;;;;;;;9.30;1.50;;;;;;;;;;5057501;28;20222;-70
2021/05/23 06:01:09;;;;;;;6.67;1.90;;;;;;;;;;5057431;28;20102;-70
2021/05/23 06:03:35;;;;;;;5.03;1.70;;;;;;;;;;5060419;28;20036;-70
2021/05/23 06:06:00;;;;;;;4.87;1.20;;;;;;;;;;5056872;28;20106;-70
2021/05/23 06:08:25;;;;;;;7.73;1.83;;;;;;;;;;5065796;28;20452;-70
2021/05/23 06:10:50;;;;;;;5.63;1.70;;;;;;;;;;5061664;28;20557;-70
2021/05/23 06:13:16;;;;;;;5.27;1.60;;;;;;;;;;5050949;28;20032;-71
2021/05/23 06:15:41;;;;;;;7.30;1.77;;;;;;;;;;5065929;28;20512;-71
2021/05/23 06:18:06;;;;;;;5.97;2.20;;;;;;;;;;5057105;28;20025;-71
2021/05/23 06:20:32;;;;;;;7.13;1.77;;;;;;;;;;5053054;28;20021;-70
2021/05/23 06:22:57;;;;;;;4.87;1.50;;;;;;;;;;5053979;28;20033;-71
2021/05/23 06:25:22;;;;;;;6.90;1.60;;;;;;;;;;5054150;28;20104;-71
2021/05/23 06:27:48;;;;;;;5.67;1.70;;;;;;;;;;5055913;28;20064;-71
2021/05/23 06:30:13;;;;;;;3.17;1.40;;;;;;;;;;5054090;28;20441;-70
2021/05/23 06:32:38;;;;;;;7.97;1.57;;;;;;;;;;5059692;28;20033;-70
2021/05/23 06:35:04;;;;;;;4.67;1.60;;;;;;;;;;5052477;28;20037;-71
2021/05/23 06:37:29;;;;;;;8.23;1.60;;;;;;;;;;5054405;28;20037;-71
2021/05/23 06:39:55;;;;;;;5.30;1.67;;;;;;;;;;5053974;28;20064;-71
2021/05/23 06:42:20;;;;;;;6.20;2.07;;;;;;;;;;5055498;28;20036;-70
2021/05/23 06:44:45;;;;;;;5.50;1.40;;;;;;;;;;5055580;28;20025;-71
2021/05/23 06:47:11;;;;;;;5.82;1.58;;;;;;;;;;5055165;28;20024;-71
2021/05/23 06:49:36;;;;;;;6.05;1.60;;;;;;;;;;5057395;28;20029;-71
2021/05/23 06:52:01;;;;;;;4.43;1.30;;;;;;;;;;5062682;28;20063;-70
2021/05/23 06:54:27;;;;;;;8.35;1.60;;;;;;;;;;5053895;28;20369;-71
2021/05/23 06:56:52;;;;;;;4.55;1.30;;;;;;;;;;5056401;28;20052;-71
2021/05/23 06:59:18;;;;;;;3.03;1.10;;;;;;;;;;5057826;28;20040;-71
2021/05/23 07:01:43;;;;;;;5.38;1.58;;;;;;;;;;5054101;28;20091;-71
2021/05/23 07:04:08;;;;;;;5.13;1.50;;;;;;;;;;5052017;28;20056;-71
2021/05/23 07:06:34;;;;;;;6.18;1.20;;;;;;;;;;5053335;28;20504;-71
2021/05/23 07:08:59;;;;;;;5.38;1.48;;;;;;;;;;5050961;28;20028;-71
2021/05/23 07:11:25;;;;;;;5.40;1.40;;;;;;;;;;5050155;28;20051;-71
2021/05/23 07:13:50;;;;;;;7.35;1.60;;;;;;;;;;5052302;28;20031;-71
2021/05/23 07:16:16;;;;;;;7.28;1.33;;;;;;;;;;5058038;28;20116;-71
2021/05/23 07:18:42;;;;;;;3.55;1.30;;;;;;;;;;5055017;28;20028;-71
2021/05/23 07:21:07;;;;;;;2.65;1.00;;;;;;;;;;5057522;28;20097;-71
2021/05/23 07:23:32;;;;;;;4.88;1.10;;;;;;;;;;5051539;28;20452;-71
2021/05/23 07:25:58;;;;;;;5.05;1.15;;;;;;;;;;5059255;28;20025;-71
2021/05/23 07:28:23;;;;;;;3.42;1.00;;;;;;;;;;5060541;28;20024;-71
2021/05/23 07:30:48;;;;;;;3.88;1.23;;;;;;;;;;5049919;28;20478;-71
2021/05/23 07:33:18;;;;;;;2.30;0.90;;;;;;;;;;5053959;28;20032;-71
2021/05/23 07:35:43;;;;;;;3.03;1.00;;;;;;;;;;5055974;28;20375;-71
2021/05/23 07:38:08;;;;;;;3.85;1.08;;;;;;;;;;5066088;28;20033;-71
2021/05/23 07:40:34;;;;;;;2.92;1.17;;;;;;;;;;5057429;28;20178;-71
2021/05/23 07:42:59;;;;;;;4.55;1.10;;;;;;;;;;5058229;28;20083;-71
2021/05/23 07:45:24;;;;;;;5.13;0.98;;;;;;;;;;5059974;28;20393;-71
2021/05/23 07:47:50;;;;;;;3.00;0.90;;;;;;;;;;5056186;28;20035;-71
2021/05/23 07:50:15;;;;;;;8.27;0.90;;;;;;;;;;5052402;28;20020;-71
2021/05/23 07:52:40;;;;;;;2.22;0.80;;;;;;;;;;5060712;28;20041;-71
2021/05/23 07:55:06;;;;;;;5.25;1.33;;;;;;;;;;5058100;28;20437;-71
2021/05/23 07:57:32;;;;;;;2.40;0.77;;;;;;;;;;5068340;28;20074;-72
2021/05/23 07:59:57;;;;;;;2.53;1.00;;;;;;;;;;5061040;28;20035;-72
2021/05/23 08:02:22;;;;;;;3.75;0.98;;;;;;;;;;5064817;28;20041;-71
2021/05/23 08:04:48;;;;;;;2.25;0.90;;;;;;;;;;5055864;28;20063;-71
2021/05/23 08:07:13;;;;;;;3.00;0.90;;;;;;;;;;5067649;28;20037;-71
2021/05/23 08:09:38;;;;;;;3.78;1.13;;;;;;;;;;5066918;28;20092;-71
2021/05/23 08:12:04;;;;;;;3.95;0.75;;;;;;;;;;5069052;28;20032;-71
2021/05/23 08:14:29;;;;;;;3.13;0.95;;;;;;;;;;5065675;28;20028;-71
2021/05/23 08:16:54;;;;;;;2.72;0.90;;;;;;;;;;5061062;28;20748;-71
2021/05/23 08:19:20;;;;;;;3.25;0.90;;;;;;;;;;5069266;28;20052;-72
2021/05/23 08:21:45;;;;;;;2.65;1.05;;;;;;;;;;5071098;28;20032;-71
2021/05/23 08:24:10;;;;;;;3.40;1.10;;;;;;;;;;5068257;28;20036;-71
2021/05/23 08:26:36;;;;;;;4.70;1.00;;;;;;;;;;5063209;28;20128;-71
2021/05/23 08:29:02;;;;;;;2.08;0.85;;;;;;;;;;5066631;28;20037;-70
2021/05/23 08:31:27;;;;;;;3.03;0.87;;;;;;;;;;5057759;28;20021;-70
2021/05/23 08:33:53;;;;;;;1.70;0.90;;;;;;;;;;5066003;28;20032;-71
2021/05/23 08:36:19;;;;;;;2.70;1.10;;;;;;;;;;5061334;28;20032;-72
2021/05/23 08:38:44;;;;;;;3.75;1.10;;;;;;;;;;5058079;28;20193;-72
2021/05/23 08:41:09;;;;;;;3.22;1.17;;;;;;;;;;5059882;28;20035;-72
2021/05/23 08:43:35;;;;;;;2.45;1.20;;;;;;;;;;5054360;28;20024;-72
2021/05/23 08:46:01;;;;;;;2.78;0.90;;;;;;;;;;5064889;28;20035;-72
2021/05/23 08:48:26;;;;;;;3.30;1.10;;;;;;;;;;5063715;28;20395;-71
2021/05/23 08:50:52;;;;;;;3.60;1.08;;;;;;;;;;5063962;28;20483;-71
2021/05/23 08:53:17;;;;;;;3.25;1.27;;;;;;;;;;5065837;28;20040;-72
2021/05/23 08:55:43;;;;;;;3.30;1.10;;;;;;;;;;5064848;28;20544;-71
2021/05/23 08:58:09;;;;;;;2.58;1.27;;;;;;;;;;5065074;28;20025;-71
2021/05/23 09:00:35;;;;;;;3.90;1.20;;;;;;;;;;5059979;28;20447;-71
2021/05/23 09:03:05;;;;;;;3.55;1.27;;;;;;;;;;5069716;28;20033;-71
2021/05/23 09:05:30;;;;;;;3.42;1.40;;;;;;;;;;5056261;28;20456;-70
2021/05/23 09:07:55;;;;;;;4.47;1.50;;;;;;;;;;5065079;28;20028;-70
2021/05/23 09:10:25;;;;;;;3.57;1.50;;;;;;;;;;5064499;28;20025;-70
2021/05/23 09:12:50;;;;;;;3.10;1.40;;;;;;;;;;5070758;28;20028;-69
2021/05/23 09:15:16;;;;;;;3.70;1.40;;;;;;;;;;5066139;28;20550;-70
2021/05/23 09:17:41;;;;;;;6.20;1.40;;;;;;;;;;5059727;28;20435;-69
2021/05/23 09:20:22;;;;;;;4.67;1.33;;;;;;;;;;5057769;28;20020;-69
2021/05/23 09:22:52;;;;;;;3.17;1.50;;;;;;;;;;5062665;28;20029;-69
2021/05/23 09:25:34;;;;;;;4.73;1.70;;;;;;;;;;5060260;28;20425;-69
2021/05/23 09:28:00;;;;;;;6.88;1.80;;;;;;;;;;5057631;28;20048;-68
2021/05/23 09:30:28;;;;;;;5.33;1.40;;;;;;;;;;5065792;28;20083;-69
2021/05/23 09:32:56;;;;;;;6.23;1.77;;;;;;;;;;5061575;28;20025;-68
2021/05/23 09:35:21;;;;;;;6.57;1.70;;;;;;;;;;5064219;28;20036;-68
2021/05/23 09:38:00;;;;;;;6.23;2.13;;;;;;;;;;5064049;28;20111;-68
2021/05/23 09:40:28;;;;;;;6.07;2.07;;;;;;;;;;5067658;28;20542;-68
2021/05/23 09:42:54;;;;;;;5.23;2.33;;;;;;;;;;5057043;28;20036;-68
2021/05/23 09:45:20;;;;;;;4.00;2.00;;;;;;;;;;5067723;28;20397;-69
2021/05/23 09:47:49;;;;;;;7.83;2.23;;;;;;;;;;5064477;28;20499;-69
2021/05/23 09:50:14;;;;;;;7.60;2.30;;;;;;;;;;5061871;28;20078;-68
2021/05/23 09:52:39;;;;;;;6.83;1.87;;;;;;;;;;5060931;28;20032;-68
2021/05/23 09:55:05;;;;;;;4.97;2.10;;;;;;;;;;5053009;28;20032;-68
2021/05/23 09:57:31;;;;;;;5.93;2.60;;;;;;;;;;5061952;28;20115;-68
2021/05/23 10:00:00;;;;;;;5.70;1.97;;;;;;;;;;5059573;28;20036;-68
2021/05/23 10:02:25;;;;;;;7.30;2.70;;;;;;;;;;5058446;28;20170;-68
2021/05/23 10:04:50;;;;;;;6.87;2.73;;;;;;;;;;5063109;28;20075;-68
2021/05/23 10:07:16;;;;;;;6.60;2.60;;;;;;;;;;5064473;28;20063;-68
2021/05/23 10:09:41;;;;;;;5.70;2.60;;;;;;;;;;5067487;28;20021;-68
2021/05/23 10:12:08;;;;;;;8.03;2.87;;;;;;;;;;5064451;28;20033;-68
2021/05/23 10:14:34;;;;;;;5.33;2.60;;;;;;;;;;5069012;28;20028;-68
2021/05/23 10:17:00;;;;;;;9.07;2.60;;;;;;;;;;5063634;28;20044;-68
2021/05/23 10:19:26;;;;;;;5.07;2.50;;;;;;;;;;5051752;28;20056;-68
2021/05/23 10:21:52;;;;;;;6.03;2.67;;;;;;;;;;5058614;28;20029;-68
2021/05/23 10:24:22;;;;;;;8.77;3.00;;;;;;;;;;5065563;28;20334;-68
2021/05/23 10:26:48;;;;;;;7.30;2.63;;;;;;;;;;5063979;28;20040;-68
2021/05/23 10:29:14;;;;;;;5.13;2.77;;;;;;;;;;5069577;28;20028;-68
2021/05/23 10:31:39;;;;;;;6.80;2.70;;;;;;;;;;5067961;28;20146;-68
2021/05/23 10:34:04;;;;;;;7.20;2.97;;;;;;;;;;5068763;28;20489;-68
2021/05/23 10:36:31;;;;;;;7.43;3.13;;;;;;;;;;5060531;28;20028;-68
2021/05/23 10:38:57;;;;;;;8.77;3.30;;;;;;;;;;5060184;28;20028;-69
2021/05/23 10:41:22;;;;;;;5.93;3.00;;;;;;;;;;5059321;28;20032;-69
2021/05/23 10:43:55;;;;;;;4.97;2.50;;;;;;;;;;5055383;28;20097;-68
2021/05/23 10:46:21;;;;;;;6.53;2.90;;;;;;;;;;5055021;28;20079;-69
2021/05/23 10:48:59;;;;;;;6.17;2.67;;;;;;;;;;5058627;28;20052;-69
2021/05/23 10:51:25;;;;;;;4.63;2.13;;;;;;;;;;5062871;28;20503;-69
2021/05/23 10:53:51;;;;;;;4.83;2.40;;;;;;;;;;5059635;28;20033;-69
2021/05/23 10:56:19;;;;;;;4.10;2.13;;;;;;;;;;5063897;28;20380;-69
2021/05/23 10:58:51;;;;;;;4.37;2.33;;;;;;;;;;5061033;28;20029;-69
2021/05/23 11:01:18;;;;;;;4.43;1.83;;;;;;;;;;5061484;28;20104;-69
2021/05/23 11:03:43;;;;;;;3.37;1.50;;;;;;;;;;5062891;28;20028;-69
2021/05/23 11:06:08;;;;;;;5.03;1.83;;;;;;;;;;5055024;28;20080;-68
2021/05/23 11:08:34;;;;;;;4.43;1.77;;;;;;;;;;5061486;28;20465;-68
2021/05/23 11:11:00;;;;;;;3.77;1.70;;;;;;;;;;5058480;28;20024;-68
2021/05/23 11:13:29;;;;;;;4.80;2.30;;;;;;;;;;5062690;28;20492;-68
2021/05/23 11:15:55;;;;;;;5.47;2.60;;;;;;;;;;5063308;28;20017;-68
2021/05/23 11:18:21;;;;;;;6.53;2.50;;;;;;;;;;5060088;28;20032;-68
2021/05/23 11:20:56;;;;;;;6.53;3.17;;;;;;;;;;5062284;28;20048;-68
2021/05/23 11:23:21;;;;;;;6.47;3.07;;;;;;;;;;5059577;28;20079;-68
2021/05/23 11:25:48;;;;;;;8.30;2.70;;;;;;;;;;5054243;28;20048;-68
2021/05/23 11:28:18;;;;;;;5.97;2.97;;;;;;;;;;5065001;28;20024;-68
2021/05/23 11:30:45;;;;;;;5.63;2.40;;;;;;;;;;5056404;28;20423;-68
2021/05/23 11:33:11;;;;;;;5.73;2.43;;;;;;;;;;5060742;28;20032;-68
2021/05/23 11:35:40;;;;;;;6.33;2.30;;;;;;;;;;5055869;28;20028;-68
2021/05/23 11:38:06;;;;;;;6.70;2.40;;;;;;;;;;5058457;28;20024;-68
2021/05/23 11:40:36;;;;;;;5.67;2.30;;;;;;;;;;5065472;28;20048;-68
2021/05/23 11:43:15;;;;;;;4.70;2.17;;;;;;;;;;5068500;28;20507;-68
2021/05/23 11:45:53;;;;;;;4.70;2.10;;;;;;;;;;5054664;28;20029;-68
2021/05/23 11:48:29;;;;;;;4.43;2.13;;;;;;;;;;5058293;28;20736;-68
2021/05/23 11:50:54;;;;;;;4.23;2.17;;;;;;;;;;5059770;28;20021;-68
2021/05/23 11:53:19;;;;;;;4.20;1.87;;;;;;;;;;5056562;28;20106;-68
2021/05/23 11:55:49;;;;;;;4.87;2.07;;;;;;;;;;5066716;28;20028;-68
2021/05/23 11:58:14;;;;;;;4.33;1.90;;;;;;;;;;5053368;28;20055;-68
2021/05/23 12:00:40;;;;;;;4.70;2.10;;;;;;;;;;5057295;28;20060;-68
2021/05/23 12:03:05;;;;;;;5.00;2.00;;;;;;;;;;5065787;28;20127;-68
2021/05/23 12:05:40;;;;;;;5.53;2.00;;;;;;;;;;5060360;28;20077;-68
2021/05/23 12:08:16;;;;;;;8.53;2.60;;;;;;;;;;5058364;28;20350;-68
2021/05/23 12:10:41;;;;;;;4.80;1.70;;;;;;;;;;5051951;28;20021;-68
2021/05/23 12:13:06;;;;;;;5.17;2.77;;;;;;;;;;5066656;28;20028;-68
2021/05/23 12:15:31;;;;;;;5.37;2.37;;;;;;;;;;5063005;28;20036;-68
2021/05/23 12:17:57;;;;;;;6.20;2.40;;;;;;;;;;5067743;28;20105;-68
2021/05/23 12:20:23;;;;;;;7.47;2.80;;;;;;;;;;5060555;28;20033;-68
2021/05/23 12:22:49;;;;;;;4.97;2.43;;;;;;;;;;5058642;28;20440;-68
2021/05/23 12:25:15;;;;;;;6.00;2.90;;;;;;;;;;5055131;28;20021;-68
2021/05/23 12:27:40;;;;;;;10.47;3.97;;;;;;;;;;5062602;28;20035;-68
2021/05/23 12:30:08;;;;;;;8.00;3.20;;;;;;;;;;5070992;28;20024;-67
2021/05/23 12:32:44;;;;;;;7.07;2.40;;;;;;;;;;5060228;28;20416;-67
2021/05/23 12:35:14;;;;;;;4.00;2.00;;;;;;;;;;5060907;28;20418;-67
2021/05/23 12:37:40;;;;;;;8.50;3.03;;;;;;;;;;5072402;28;20055;-68
2021/05/23 12:40:13;;;;;;;6.67;2.60;;;;;;;;;;5072152;28;20032;-67
2021/05/23 12:42:38;;;;;;;4.20;2.10;;;;;;;;;;5071803;28;20372;-67
2021/05/23 12:45:07;;;;;;;6.63;2.80;;;;;;;;;;5066328;28;20034;-67
2021/05/23 12:47:32;;;;;;;7.10;2.63;;;;;;;;;;5069316;28;20040;-67
2021/05/23 12:49:58;;;;;;;6.73;2.70;;;;;;;;;;5071281;28;20071;-67
2021/05/23 12:52:23;;;;;;;7.50;2.60;;;;;;;;;;5062280;28;20033;-68
2021/05/23 12:54:48;;;;;;;6.73;2.50;;;;;;;;;;5064451;28;20020;-67
2021/05/23 12:57:15;;;;;;;9.23;3.37;;;;;;;;;;5063491;28;20563;-67
2021/05/23 12:59:41;;;;;;;5.57;2.60;;;;;;;;;;5066969;28;20068;-67
2021/05/23 13:02:07;;;;;;;6.10;2.90;;;;;;;;;;5062523;28;20456;-67
2021/05/23 13:04:34;;;;;;;5.60;2.43;;;;;;;;;;5070707;28;20397;-68
2021/05/23 13:07:01;;;;;;;6.70;2.97;;;;;;;;;;5059255;28;20028;-68
2021/05/23 13:09:46;;;;;;;5.33;2.90;;;;;;;;;;5065720;28;20025;-68
2021/05/23 13:12:12;;;;;;;7.20;2.73;;;;;;;;;;5062325;28;20090;-68
2021/05/23 13:14:37;;;;;;;6.63;2.70;;;;;;;;;;5070242;28;20024;-67
2021/05/23 13:17:04;;;;;;;5.93;2.80;;;;;;;;;;5061763;28;20120;-68
2021/05/23 13:19:30;;;;;;;7.17;2.90;;;;;;;;;;5054259;28;20078;-67
2021/05/23 13:21:57;;;;;;;8.37;3.37;;;;;;;;;;5061375;28;20021;-67
2021/05/23 13:24:24;;;;;;;6.50;3.07;;;;;;;;;;5060130;28;20111;-67
2021/05/23 13:26:55;;;;;;;5.53;2.80;;;;;;;;;;5055227;28;20374;-67
2021/05/23 13:29:21;;;;;;;5.90;3.00;;;;;;;;;;5057473;28;20033;-67
2021/05/23 13:31:46;;;;;;;6.20;3.20;;;;;;;;;;5055780;28;20384;-67
2021/05/23 13:34:11;;;;;;;5.70;2.80;;;;;;;;;;5055334;28;20028;-68
2021/05/23 13:36:37;;;;;;;5.70;2.80;;;;;;;;;;5057630;28;20101;-68
2021/05/23 13:39:04;;;;;;;6.07;2.67;;;;;;;;;;5069164;28;20112;-68
2021/05/23 13:41:30;;;;;;;7.33;2.90;;;;;;;;;;5060678;28;20028;-68
2021/05/23 13:43:56;;;;;;;5.93;2.63;;;;;;;;;;5051969;28;20035;-68
2021/05/23 13:46:21;;;;;;;7.43;3.13;;;;;;;;;;5063796;28;20429;-68
2021/05/23 13:48:46;;;;;;;6.07;2.93;;;;;;;;;;5053580;28;20025;-68
2021/05/23 13:51:11;;;;;;;5.47;3.10;;;;;;;;;;5061198;28;20743;-68
2021/05/23 13:53:37;;;;;;;6.77;3.40;;;;;;;;;;5061356;28;20071;-68
2021/05/23 13:56:02;;;;;;;6.50;2.60;;;;;;;;;;5062113;28;20028;-67
2021/05/23 13:58:27;;;;;;;4.93;1.60;;;;;;;;;;5064762;28;20111;-67
2021/05/23 14:00:53;;;;;;;3.97;1.77;;;;;;;;;;5068495;28;20438;-67
2021/05/23 14:03:20;;;;;;;3.40;1.67;;;;;;;;;;5065443;28;20036;-67
2021/05/23 14:05:47;;;;;;;7.27;2.10;;;;;;;;;;5061178;28;20470;-67
2021/05/23 14:08:13;;;;;;;6.53;2.30;;;;;;;;;;5057801;28;20040;-67
2021/05/23 14:10:38;;;;;;;4.90;1.77;;;;;;;;;;5061954;28;20484;-67
2021/05/23 14:13:03;;;;;;;4.53;2.00;;;;;;;;;;5052576;28;20108;-67
2021/05/23 14:15:29;;;;;;;4.43;1.90;;;;;;;;;;5059611;28;20040;-67
2021/05/23 14:17:54;;;;;;;4.20;2.00;;;;;;;;;;5063968;28;20384;-67
2021/05/23 14:20:23;;;;;;;6.70;2.30;;;;;;;;;;5053905;28;20028;-67
2021/05/23 14:22:49;;;;;;;4.07;1.90;;;;;;;;;;5061943;28;20150;-67
2021/05/23 14:25:14;;;;;;;6.57;2.03;;;;;;;;;;5059974;28;20398;-67
2021/05/23 14:27:40;;;;;;;4.50;1.70;;;;;;;;;;5065927;28;20029;-68
2021/05/23 14:30:05;;;;;;;4.97;1.60;;;;;;;;;;5062233;28;20429;-68
2021/05/23 14:32:31;;;;;;;2.90;1.70;;;;;;;;;;5068419;28;20038;-68
2021/05/23 14:34:56;;;;;;;5.00;1.63;;;;;;;;;;5065803;28;20474;-68